Terminal Aerodrome Forecast
Issued by NWS Duluth, MN

Home | Current Version | Previous Version | Text Only | Print | Product List | Glossary On
Versions: 1 2 3 4 5 6 7 8 9 10 11 12 13 14 15 16 17 18 19 20 21 22 23
826
FTUS43 KDLH 300541
TAFINL
TAF
KINL 300541Z 3006/3106 00000KT P6SM SKC
      TEMPO 3006/3009 3SM BR
     FM300900 00000KT 1SM BR SKC
      TEMPO 3009/3012 1/2SM FG
     FM301400 28010KT P6SM SCT070
     FM301800 26010KT P6SM VCSH BKN070=

USA.gov is the U.S. government's official web portal to all federal, state and local government web resources and services.